createdAt,value
2022-10-29T00:00:15.818Z,53.02
2022-10-29T00:02:42.389Z,53.09
2022-10-29T00:05:09.290Z,52.63
2022-10-29T00:07:35.798Z,52.75
2022-10-29T00:10:02.396Z,52.67
2022-10-29T00:12:28.946Z,52.56
2022-10-29T00:14:55.424Z,52.64
2022-10-29T00:17:21.899Z,52.33
2022-10-29T00:19:48.990Z,52.15
2022-10-29T00:22:15.841Z,52.41
2022-10-29T00:24:42.350Z,52.27
2022-10-29T00:27:08.804Z,52.06
2022-10-29T00:29:35.268Z,52.32
2022-10-29T00:32:01.763Z,52.16
2022-10-29T00:34:29.172Z,52.44
2022-10-29T00:36:55.726Z,51.95
2022-10-29T00:39:22.178Z,52.51
2022-10-29T00:41:48.648Z,52.54
2022-10-29T00:44:15.039Z,52.46
2022-10-29T00:46:44.430Z,52.73
2022-10-29T00:49:11.391Z,52.40
2022-10-29T00:51:38.637Z,52.51
2022-10-29T00:54:08.557Z,52.74
2022-10-29T00:57:01.575Z,52.83
2022-10-29T00:59:28.085Z,52.87
2022-10-29T01:01:55.983Z,52.67
2022-10-29T01:04:23.634Z,52.91
2022-10-29T01:06:50.141Z,52.69
2022-10-29T01:09:16.680Z,52.67
2022-10-29T01:12:20.995Z,53.30
2022-10-29T01:15:01.071Z,53.28
2022-10-29T01:17:40.165Z,53.45
2022-10-29T01:20:12.614Z,53.35
2022-10-29T01:22:39.068Z,53.73
2022-10-29T01:25:41.018Z,53.51
2022-10-29T01:28:36.112Z,53.32
2022-10-29T01:31:15.225Z,53.19
2022-10-29T01:34:12.585Z,53.51
2022-10-29T01:36:48.909Z,53.44
2022-10-29T01:39:41.749Z,53.62
2022-10-29T01:42:11.290Z,53.17
2022-10-29T01:45:02.102Z,53.66
2022-10-29T01:47:32.076Z,53.74
2022-10-29T01:50:03.763Z,53.69
2022-10-29T01:52:32.897Z,53.65
2022-10-29T01:54:59.360Z,54.18
2022-10-29T01:57:25.771Z,54.50
2022-10-29T01:59:56.125Z,54.24
2022-10-29T02:02:48.071Z,54.48
2022-10-29T02:05:27.549Z,54.26
2022-10-29T02:08:29.127Z,54.55
2022-10-29T02:10:58.497Z,54.27
2022-10-29T02:13:31.996Z,54.74
2022-10-29T02:15:58.968Z,54.34
2022-10-29T02:18:25.585Z,54.71
2022-10-29T02:20:52.136Z,54.74
2022-10-29T02:23:18.677Z,54.62
2022-10-29T02:25:45.298Z,54.52
2022-10-29T02:28:11.905Z,54.23
2022-10-29T02:30:38.485Z,54.64
2022-10-29T02:33:04.913Z,54.92
2022-10-29T02:35:31.372Z,54.59
2022-10-29T02:37:57.840Z,54.50
2022-10-29T02:40:24.382Z,54.71
2022-10-29T02:42:50.875Z,54.43
2022-10-29T02:45:17.299Z,54.73
2022-10-29T02:47:43.743Z,54.52
2022-10-29T02:50:10.208Z,54.74
2022-10-29T02:52:36.649Z,54.48
2022-10-29T02:55:03.434Z,54.37
2022-10-29T02:57:29.880Z,54.71
2022-10-29T02:59:56.335Z,55.04
2022-10-29T03:02:22.895Z,55.47
2022-10-29T03:04:49.484Z,55.40
2022-10-29T03:07:15.918Z,54.89
2022-10-29T03:09:42.422Z,55.21
2022-10-29T03:12:08.853Z,54.98
2022-10-29T03:14:35.318Z,55.13
2022-10-29T03:17:01.780Z,55.31
2022-10-29T03:19:29.396Z,55.01
2022-10-29T03:21:55.884Z,54.95
2022-10-29T03:24:22.707Z,55.25
2022-10-29T03:26:49.130Z,55.00
2022-10-29T03:29:15.662Z,55.06
2022-10-29T03:31:42.173Z,55.29
2022-10-29T03:34:08.628Z,55.56
2022-10-29T03:36:35.068Z,55.53
2022-10-29T03:39:01.559Z,55.75
2022-10-29T03:41:28.348Z,55.75
2022-10-29T03:46:22.225Z,55.61
2022-10-29T03:48:51.680Z,55.93
2022-10-29T03:51:18.180Z,55.75
2022-10-29T03:53:44.599Z,55.98
2022-10-29T03:56:11.074Z,55.98
2022-10-29T03:58:37.512Z,56.89
2022-10-29T04:01:05.789Z,56.98
2022-10-29T04:03:33.701Z,56.82
2022-10-29T04:06:01.644Z,56.70
2022-10-29T04:08:28.437Z,56.37
2022-10-29T04:10:54.911Z,56.08
2022-10-29T04:13:21.443Z,56.29
2022-10-29T04:15:47.939Z,56.24
2022-10-29T04:18:14.517Z,55.92
2022-10-29T04:22:10.263Z,55.97
2022-10-29T04:29:02.490Z,56.00
2022-10-29T04:31:28.927Z,56.49
2022-10-29T04:33:55.384Z,56.34
2022-10-29T04:36:21.864Z,56.26
2022-10-29T04:38:48.295Z,56.09
2022-10-29T04:41:14.725Z,56.38
2022-10-29T04:43:41.187Z,56.12
2022-10-29T04:46:09.797Z,57.02
2022-10-29T04:48:36.731Z,56.57
2022-10-29T04:51:03.469Z,56.33
2022-10-29T04:53:30.133Z,56.25
2022-10-29T04:56:01.367Z,56.18
2022-10-29T04:58:28.368Z,56.34
2022-10-29T05:01:01.150Z,56.01
2022-10-29T05:03:27.862Z,55.91
2022-10-29T05:05:54.335Z,56.45
2022-10-29T05:08:21.517Z,56.16
2022-10-29T05:10:47.970Z,56.88
2022-10-29T05:13:14.566Z,56.28
2022-10-29T05:15:41.670Z,56.09
2022-10-29T05:18:09.332Z,56.19
2022-10-29T05:20:35.858Z,56.08
2022-10-29T05:23:06.890Z,56.46
2022-10-29T05:25:37.732Z,56.13
2022-10-29T05:28:05.464Z,56.11
2022-10-29T05:30:33.166Z,55.78
2022-10-29T05:33:00.094Z,55.83
2022-10-29T05:35:27.269Z,55.49
2022-10-29T05:37:54.601Z,55.62
2022-10-29T05:40:22.020Z,55.61
2022-10-29T05:42:48.849Z,55.48
2022-10-29T05:45:15.755Z,55.45
2022-10-29T05:47:42.430Z,55.74
2022-10-29T05:50:09.735Z,55.61
2022-10-29T05:52:36.434Z,55.61
2022-10-29T05:55:03.158Z,55.51
2022-10-29T05:57:32.462Z,55.51
2022-10-29T05:59:59.097Z,55.59
2022-10-29T06:02:25.796Z,55.95
2022-10-29T06:04:52.434Z,55.78
2022-10-29T06:07:18.986Z,55.66
2022-10-29T06:09:45.465Z,55.45
2022-10-29T06:12:11.872Z,55.90
2022-10-29T06:14:38.336Z,55.71
2022-10-29T06:17:04.796Z,55.56
2022-10-29T06:19:31.494Z,56.00
2022-10-29T06:22:00.402Z,55.50
2022-10-29T06:24:27.585Z,55.39
2022-10-29T06:26:54.556Z,55.82
2022-10-29T06:29:21.214Z,55.53
2022-10-29T06:31:47.778Z,55.36
2022-10-29T06:34:14.904Z,55.45
2022-10-29T06:36:41.540Z,55.33
2022-10-29T06:39:07.991Z,55.46
2022-10-29T06:41:34.492Z,55.17
2022-10-29T06:44:01.023Z,54.59
2022-10-29T06:46:27.511Z,54.88
2022-10-29T06:48:54.028Z,54.87
2022-10-29T06:51:20.511Z,54.89
2022-10-29T06:53:46.934Z,54.74
2022-10-29T06:56:13.395Z,55.48
2022-10-29T06:58:39.945Z,55.09
2022-10-29T07:01:06.462Z,54.84
2022-10-29T07:03:33.004Z,54.29
2022-10-29T07:06:00.044Z,54.35
2022-10-29T07:08:26.870Z,54.47
2022-10-29T07:10:54.526Z,53.84
2022-10-29T07:13:20.971Z,53.68
2022-10-29T07:15:47.419Z,53.45
2022-10-29T07:18:13.895Z,53.19
2022-10-29T07:20:42.754Z,53.24
2022-10-29T07:23:10.292Z,53.13
2022-10-29T07:25:37.566Z,52.71
2022-10-29T07:28:13.496Z,52.87
2022-10-29T07:30:40.798Z,52.37
2022-10-29T07:33:07.265Z,52.53
2022-10-29T07:35:34.779Z,52.44
2022-10-29T07:38:07.131Z,52.28
2022-10-29T07:40:38.051Z,52.59
2022-10-29T07:43:04.564Z,52.10
2022-10-29T07:45:31.034Z,51.96
2022-10-29T07:48:07.489Z,51.83
2022-10-29T07:50:34.154Z,51.93
2022-10-29T07:53:01.416Z,51.88
2022-10-29T07:57:58.900Z,51.33
2022-10-29T08:00:25.982Z,51.53
2022-10-29T08:02:54.330Z,52.19
2022-10-29T08:05:21.545Z,51.54
2022-10-29T08:07:47.988Z,51.72
2022-10-29T08:10:14.656Z,51.45
2022-10-29T08:12:41.108Z,50.85
2022-10-29T08:15:08.323Z,51.12
2022-10-29T08:17:34.785Z,50.83
2022-10-29T08:20:01.206Z,50.17
2022-10-29T08:22:30.531Z,50.14
2022-10-29T08:24:57.471Z,49.38
2022-10-29T08:27:24.029Z,48.98
2022-10-29T08:29:50.471Z,48.97
2022-10-29T08:32:16.923Z,48.35
2022-10-29T08:34:43.438Z,48.58
2022-10-29T08:37:09.871Z,48.02
2022-10-29T08:39:36.350Z,47.34
2022-10-29T08:42:33.793Z,46.92
2022-10-29T08:45:09.143Z,46.61
2022-10-29T08:48:07.386Z,46.04
2022-10-29T08:50:41.024Z,45.12
2022-10-29T08:53:24.428Z,44.50
2022-10-29T08:55:52.359Z,43.48
2022-10-29T08:58:30.925Z,43.51
2022-10-29T09:00:58.451Z,42.19
2022-10-29T09:03:27.243Z,41.33
2022-10-29T09:06:15.948Z,40.11
2022-10-29T09:09:17.423Z,39.04
2022-10-29T09:12:07.132Z,38.84
2022-10-29T09:14:59.980Z,38.58
2022-10-29T09:17:54.677Z,37.78
2022-10-29T09:20:50.977Z,35.60
2022-10-29T09:23:23.553Z,33.12
2022-10-29T09:26:05.481Z,30.75
2022-10-29T09:28:48.568Z,25.83
2022-10-29T09:31:34.746Z,22.76
2022-10-29T09:34:19.813Z,19.94
2022-10-29T09:36:47.858Z,20.07
2022-10-29T09:39:18.815Z,19.72
2022-10-29T09:41:48.654Z,20.21
2022-10-29T09:44:34.595Z,19.56
2022-10-29T09:47:21.029Z,19.99
2022-10-29T09:50:08.352Z,21.45
2022-10-29T09:52:37.355Z,24.34
2022-10-29T09:55:06.031Z,24.93
2022-10-29T09:57:34.770Z,25.04
2022-10-29T10:00:05.398Z,22.90
2022-10-29T10:02:55.414Z,20.14
2022-10-29T10:05:31.211Z,17.95
2022-10-29T10:08:11.234Z,17.13
2022-10-29T10:11:04.887Z,15.62
2022-10-29T10:13:36.755Z,14.58
2022-10-29T10:16:05.805Z,14.97
2022-10-29T10:18:32.262Z,16.20
2022-10-29T10:21:11.051Z,18.66
2022-10-29T10:23:54.274Z,19.94
2022-10-29T10:26:50.154Z,20.49
2022-10-29T10:29:23.577Z,21.79
2022-10-29T10:31:50.663Z,23.04
2022-10-29T10:34:36.362Z,21.57
2022-10-29T10:37:13.807Z,21.66
2022-10-29T10:39:42.574Z,24.08
2022-10-29T10:42:39.535Z,25.91
2022-10-29T10:45:14.536Z,29.34
2022-10-29T10:47:47.494Z,29.33
2022-10-29T10:50:17.193Z,27.98
2022-10-29T10:52:45.090Z,26.34
2022-10-29T10:55:24.185Z,25.38
2022-10-29T10:58:15.096Z,24.54
2022-10-29T11:00:49.453Z,25.57
2022-10-29T11:06:04.323Z,23.12
2022-10-29T11:08:36.219Z,22.29
2022-10-29T11:11:08.556Z,20.44
2022-10-29T11:13:35.355Z,22.10
2022-10-29T11:16:07.916Z,20.86
2022-10-29T11:19:05.501Z,20.95
2022-10-29T11:21:39.437Z,19.68
2022-10-29T11:24:18.189Z,16.75
2022-10-29T11:26:48.775Z,14.63
2022-10-29T11:29:39.605Z,16.15
2022-10-29T11:32:15.237Z,16.03
2022-10-29T11:34:46.803Z,18.31
2022-10-29T11:37:21.365Z,19.52
2022-10-29T11:39:50.532Z,18.81
2022-10-29T11:42:17.013Z,17.53
2022-10-29T11:44:43.525Z,18.56
2022-10-29T11:47:27.237Z,22.18
2022-10-29T11:50:06.332Z,20.20
2022-10-29T11:52:56.159Z,19.57
2022-10-29T11:55:40.919Z,17.20
2022-10-29T11:58:16.699Z,18.63
2022-10-29T12:01:10.626Z,19.12
2022-10-29T12:03:46.368Z,19.48
2022-10-29T12:06:19.792Z,17.98
2022-10-29T12:09:04.471Z,19.26
2022-10-29T12:11:43.140Z,20.49
2022-10-29T12:14:29.806Z,21.46
2022-10-29T12:17:03.596Z,25.90
2022-10-29T12:19:47.209Z,27.03
2022-10-29T12:22:22.713Z,27.85
2022-10-29T12:24:58.047Z,28.32
2022-10-29T12:27:40.898Z,29.56
2022-10-29T12:30:09.566Z,30.44
2022-10-29T12:33:06.377Z,30.89
2022-10-29T12:35:57.467Z,31.18
2022-10-29T12:38:37.464Z,32.68
2022-10-29T12:41:26.685Z,32.78
2022-10-29T12:44:00.865Z,33.73
2022-10-29T12:46:39.574Z,33.31
2022-10-29T12:49:15.749Z,33.85
2022-10-29T12:54:40.956Z,33.33
2022-10-29T12:57:13.574Z,34.09
2022-10-29T12:59:44.112Z,33.44
2022-10-29T13:02:26.761Z,34.09
2022-10-29T13:05:11.406Z,33.27
2022-10-29T13:07:58.320Z,33.62
2022-10-29T13:10:31.232Z,33.40
2022-10-29T13:13:02.198Z,34.53
2022-10-29T13:16:01.931Z,34.61
2022-10-29T13:18:44.391Z,34.41
2022-10-29T13:21:11.071Z,33.98
2022-10-29T13:23:37.901Z,35.84
2022-10-29T13:26:06.393Z,37.26
2022-10-29T13:28:35.929Z,33.90
2022-10-29T13:31:08.417Z,34.37
2022-10-29T13:33:38.021Z,34.21
2022-10-29T13:36:04.630Z,33.52
2022-10-29T13:38:58.004Z,33.44
2022-10-29T13:41:42.556Z,35.02
2022-10-29T13:44:23.681Z,34.56
2022-10-29T13:46:53.916Z,36.10
2022-10-29T13:49:24.792Z,34.28
2022-10-29T13:52:14.838Z,33.61
2022-10-29T13:54:47.448Z,34.55
2022-10-29T13:57:30.110Z,34.32
2022-10-29T14:00:01.907Z,33.77
2022-10-29T14:02:40.458Z,34.31
2022-10-29T14:05:21.733Z,33.03
2022-10-29T14:08:06.345Z,34.62
2022-10-29T14:10:41.934Z,34.48
2022-10-29T14:13:19.195Z,33.86
2022-10-29T14:16:01.837Z,34.71
2022-10-29T14:18:28.958Z,34.26
2022-10-29T14:21:00.560Z,34.09
2022-10-29T14:23:28.309Z,35.83
2022-10-29T14:25:56.792Z,34.74
2022-10-29T14:28:31.057Z,34.72
2022-10-29T14:31:28.064Z,35.99
2022-10-29T14:33:57.299Z,36.34
2022-10-29T14:36:39.843Z,34.86
2022-10-29T14:39:09.742Z,35.42
2022-10-29T14:41:38.337Z,36.17
2022-10-29T14:44:24.029Z,35.58
2022-10-29T14:46:58.121Z,35.32
2022-10-29T14:49:25.684Z,35.01
2022-10-29T14:51:58.539Z,34.70
2022-10-29T14:54:27.105Z,35.48
2022-10-29T14:57:06.747Z,34.76
2022-10-29T14:59:34.237Z,35.49
2022-10-29T15:02:17.428Z,36.26
2022-10-29T15:04:56.917Z,36.56
2022-10-29T15:07:23.515Z,37.04
2022-10-29T15:10:10.914Z,38.40
2022-10-29T15:12:39.387Z,38.15
2022-10-29T15:15:25.919Z,38.56
2022-10-29T15:17:58.670Z,38.98
2022-10-29T15:23:59.790Z,39.37
2022-10-29T15:26:26.984Z,40.50
2022-10-29T15:28:54.921Z,40.66
2022-10-29T15:31:24.274Z,41.13
2022-10-29T15:33:52.143Z,42.07
2022-10-29T15:36:18.671Z,42.05
2022-10-29T15:38:52.238Z,41.82
2022-10-29T15:41:44.111Z,41.98
2022-10-29T15:44:27.877Z,42.58
2022-10-29T15:46:58.870Z,43.10
2022-10-29T15:49:31.415Z,42.60
2022-10-29T15:52:00.596Z,43.59
2022-10-29T15:54:27.903Z,43.20
2022-10-29T15:56:54.536Z,43.33
2022-10-29T15:59:23.997Z,43.38
2022-10-29T16:01:50.568Z,43.93
2022-10-29T16:04:17.084Z,44.08
2022-10-29T16:06:43.595Z,44.06
2022-10-29T16:09:16.725Z,44.18
2022-10-29T16:11:43.223Z,44.40
2022-10-29T16:14:10.048Z,44.81
2022-10-29T16:16:37.654Z,44.91
2022-10-29T16:19:04.173Z,44.75
2022-10-29T16:21:30.808Z,45.29
2022-10-29T16:23:57.258Z,45.35
2022-10-29T16:26:25.070Z,45.35
2022-10-29T16:28:53.249Z,45.87
2022-10-29T16:31:29.096Z,45.22
2022-10-29T16:33:59.569Z,45.17
2022-10-29T16:36:26.099Z,45.52
2022-10-29T16:38:52.681Z,45.42
2022-10-29T16:41:19.881Z,45.68
2022-10-29T16:43:46.969Z,45.53
2022-10-29T16:46:14.059Z,45.26
2022-10-29T16:48:40.853Z,44.90
2022-10-29T16:51:07.799Z,45.26
2022-10-29T16:53:34.786Z,44.74
2022-10-29T16:56:01.624Z,44.69
2022-10-29T16:58:28.112Z,44.65
2022-10-29T17:01:05.369Z,45.39
2022-10-29T17:03:33.113Z,44.91
2022-10-29T17:06:07.794Z,45.01
2022-10-29T17:08:35.198Z,45.19
2022-10-29T17:11:02.773Z,44.06
2022-10-29T17:13:29.367Z,44.69
2022-10-29T17:15:56.022Z,44.85
2022-10-29T17:18:24.171Z,44.68
2022-10-29T17:20:57.806Z,44.02
2022-10-29T17:23:24.474Z,44.27
2022-10-29T17:25:52.917Z,44.02
2022-10-29T17:28:19.774Z,43.82
2022-10-29T17:30:46.673Z,44.43
2022-10-29T17:33:13.299Z,44.88
2022-10-29T17:35:39.946Z,44.12
2022-10-29T17:38:06.461Z,44.99
2022-10-29T17:40:32.922Z,44.04
2022-10-29T17:42:59.844Z,44.85
2022-10-29T17:45:26.473Z,46.03
2022-10-29T17:47:57.378Z,44.17
2022-10-29T17:50:25.294Z,44.35
2022-10-29T17:52:53.206Z,43.12
2022-10-29T17:55:19.890Z,43.18
2022-10-29T17:57:46.383Z,42.81
2022-10-29T18:00:13.458Z,43.30
2022-10-29T18:02:40.011Z,43.18
2022-10-29T18:05:07.445Z,43.69
2022-10-29T18:07:34.265Z,43.18
2022-10-29T18:10:00.732Z,43.08
2022-10-29T18:12:27.184Z,42.87
2022-10-29T18:14:53.695Z,42.65
2022-10-29T18:17:20.203Z,43.13
2022-10-29T18:19:46.765Z,43.46
2022-10-29T18:22:13.290Z,43.48
2022-10-29T18:24:39.842Z,43.81
2022-10-29T18:27:06.299Z,43.70
2022-10-29T18:29:32.829Z,42.99
2022-10-29T18:31:59.274Z,43.12
2022-10-29T18:34:25.756Z,43.71
2022-10-29T18:36:52.180Z,43.63
2022-10-29T18:39:18.663Z,43.92
2022-10-29T18:41:45.136Z,43.95
2022-10-29T18:44:11.662Z,44.40
2022-10-29T18:46:38.147Z,44.38
2022-10-29T18:49:04.607Z,44.69
2022-10-29T18:51:32.689Z,44.58
2022-10-29T18:53:59.640Z,44.64
2022-10-29T18:56:27.235Z,44.82
2022-10-29T18:58:55.600Z,44.53
2022-10-29T19:01:27.805Z,45.27
2022-10-29T19:03:56.449Z,44.61
2022-10-29T19:06:24.701Z,44.89
2022-10-29T19:08:51.684Z,44.71
2022-10-29T19:11:23.756Z,44.57
2022-10-29T19:13:51.453Z,44.80
2022-10-29T19:16:18.439Z,45.39
2022-10-29T19:18:45.061Z,44.47
2022-10-29T19:21:14.048Z,44.19
2022-10-29T19:23:40.648Z,44.30
2022-10-29T19:26:15.753Z,44.67
2022-10-29T19:28:44.101Z,44.62
2022-10-29T19:31:19.447Z,44.64
2022-10-29T19:33:50.283Z,44.08
2022-10-29T19:36:17.503Z,44.36
2022-10-29T19:38:44.206Z,44.59
2022-10-29T19:41:12.274Z,44.31
2022-10-29T19:43:39.229Z,44.82
2022-10-29T19:46:12.374Z,44.42
2022-10-29T19:48:39.382Z,44.51
2022-10-29T19:51:06.313Z,44.79
2022-10-29T19:53:33.464Z,44.66
2022-10-29T19:55:59.927Z,44.70
2022-10-29T19:58:27.597Z,45.20
2022-10-29T20:00:54.814Z,44.86
2022-10-29T20:03:21.540Z,44.97
2022-10-29T20:05:48.815Z,44.89
2022-10-29T20:08:16.298Z,44.52
2022-10-29T20:10:43.422Z,44.40
2022-10-29T20:13:09.942Z,44.65
2022-10-29T20:15:38.587Z,44.67
2022-10-29T20:18:05.471Z,43.79
2022-10-29T20:20:31.977Z,43.27
2022-10-29T20:23:00.058Z,43.32
2022-10-29T20:25:27.376Z,43.87
2022-10-29T20:27:53.926Z,43.12
2022-10-29T20:30:20.510Z,43.20
2022-10-29T20:32:48.417Z,42.32
2022-10-29T20:35:15.317Z,42.61
2022-10-29T20:37:41.777Z,41.18
2022-10-29T20:40:09.065Z,40.53
2022-10-29T20:42:49.408Z,40.49
2022-10-29T20:45:17.370Z,41.21
2022-10-29T20:47:43.828Z,41.22
2022-10-29T20:50:10.336Z,41.21
2022-10-29T20:53:17.592Z,41.17
2022-10-29T20:55:44.065Z,41.29
2022-10-29T20:58:29.399Z,42.46
2022-10-29T21:00:55.926Z,41.69
2022-10-29T21:03:22.495Z,41.64
2022-10-29T21:05:48.969Z,42.30
2022-10-29T21:08:15.613Z,42.67
2022-10-29T21:10:42.126Z,43.33
2022-10-29T21:13:08.682Z,42.82
2022-10-29T21:15:36.215Z,43.33
2022-10-29T21:18:02.740Z,43.26
2022-10-29T21:20:29.253Z,43.91
2022-10-29T21:22:55.963Z,44.46
2022-10-29T21:25:22.586Z,44.83
2022-10-29T21:27:49.070Z,44.63
2022-10-29T21:30:15.924Z,44.51
2022-10-29T21:32:42.569Z,45.53
2022-10-29T21:35:09.218Z,45.22
2022-10-29T21:37:35.662Z,45.33
2022-10-29T21:40:05.976Z,46.01
2022-10-29T21:42:33.063Z,45.61
2022-10-29T21:44:59.564Z,45.17
2022-10-29T21:47:26.041Z,45.92
2022-10-29T21:49:52.680Z,45.89
2022-10-29T21:52:19.154Z,44.56
2022-10-29T21:54:45.664Z,44.55
2022-10-29T21:57:12.165Z,44.48
2022-10-29T21:59:38.686Z,44.27
2022-10-29T22:02:05.282Z,44.10
2022-10-29T22:04:31.838Z,43.85
2022-10-29T22:06:58.791Z,43.04
2022-10-29T22:09:25.317Z,43.13
2022-10-29T22:11:51.822Z,42.62
2022-10-29T22:14:18.289Z,42.83
2022-10-29T22:16:44.798Z,42.29
2022-10-29T22:19:11.259Z,43.20
2022-10-29T22:21:37.814Z,43.01
2022-10-29T22:24:04.948Z,43.58
2022-10-29T22:26:31.599Z,44.00
2022-10-29T22:28:58.082Z,43.66
2022-10-29T22:31:24.698Z,43.83
2022-10-29T22:33:51.729Z,43.81
2022-10-29T22:36:24.308Z,43.49
2022-10-29T22:38:54.990Z,44.57
2022-10-29T22:41:21.938Z,44.67
2022-10-29T22:43:48.444Z,44.66
2022-10-29T22:46:18.849Z,44.44
2022-10-29T22:48:45.709Z,44.86
2022-10-29T22:51:17.772Z,44.39
2022-10-29T22:53:45.014Z,44.43
2022-10-29T22:56:21.367Z,44.42
2022-10-29T22:58:48.597Z,44.61
2022-10-29T23:01:17.470Z,44.52
2022-10-29T23:03:44.505Z,44.84
2022-10-29T23:06:14.057Z,44.41
2022-10-29T23:08:40.648Z,44.77
2022-10-29T23:11:19.354Z,44.61
2022-10-29T23:13:52.066Z,44.80
2022-10-29T23:16:18.895Z,45.06
2022-10-29T23:18:53.017Z,44.75
2022-10-29T23:21:20.172Z,45.32
2022-10-29T23:23:49.710Z,44.77
2022-10-29T23:26:19.798Z,43.84
2022-10-29T23:28:47.250Z,44.97
2022-10-29T23:31:15.948Z,45.52
2022-10-29T23:33:46.936Z,45.69
2022-10-29T23:36:14.210Z,45.42
2022-10-29T23:38:40.833Z,45.92
2022-10-29T23:41:07.742Z,45.41
2022-10-29T23:43:34.455Z,45.94
2022-10-29T23:46:00.911Z,45.88
2022-10-29T23:48:29.955Z,45.89
2022-10-29T23:50:56.665Z,45.60
2022-10-29T23:53:24.164Z,45.18
2022-10-29T23:55:50.708Z,44.70
2022-10-29T23:58:17.155Z,45.05
